Terminal Aerodrome Forecast
Issued by NWS

Home | Current Version | Previous Version | Text Only | Print | Product List | Glossary On
Versions: 1 2 3 4 5 6 7 8 9 10 11 12 13 14
000
FTUS42 KMLB 250535
TAFSFB
TAF
KSFB 250535Z 2506/2606 02007KT P6SM FEW030 SCT250
     FM251500 05011KT P6SM SCT035 BKN080
     FM251800 05012G19KT P6SM SCT040 SCT150 BKN250
     FM260000 05008KT P6SM SCT045=

USA.gov is the U.S. government's official web portal to all federal, state and local government web resources and services.